Time;durP1;ratioP1;P1;durP2;ratioP2;P2;SDS_P1;SDS_P2;PMS_P1;PMS_P2;Temp;Humidity;BMP_temperature;BMP_pressure;BME280_temperature;BME280_humidity;BME280_pressure;Samples;Min_cycle;Max_cycle;Signal;HPM_P1;HPM_P2
2023/07/26 00:00:35;;;;;;;2.72;2.22;;;;;;;;;;5037816;28;20029;-76
2023/07/26 00:03:00;;;;;;;3.92;2.47;;;;;;;;;;5038465;28;20048;-76
2023/07/26 00:05:26;;;;;;;3.97;2.80;;;;;;;;;;5034160;28;20489;-76
2023/07/26 00:07:53;;;;;;;4.20;2.25;;;;;;;;;;5033037;28;20021;-76
2023/07/26 00:10:18;;;;;;;4.03;2.30;;;;;;;;;;5033246;28;20605;-76
2023/07/26 00:12:44;;;;;;;2.90;2.33;;;;;;;;;;5031280;28;20029;-76
2023/07/26 00:15:09;;;;;;;3.47;2.60;;;;;;;;;;5030989;28;20025;-77
2023/07/26 00:17:35;;;;;;;3.40;2.50;;;;;;;;;;5032774;28;20529;-78
2023/07/26 00:20:01;;;;;;;6.53;2.50;;;;;;;;;;5031282;28;20057;-77
2023/07/26 00:22:26;;;;;;;2.88;2.42;;;;;;;;;;5030798;28;20113;-78
2023/07/26 00:24:53;;;;;;;3.78;2.72;;;;;;;;;;5030821;28;20082;-76
2023/07/26 00:27:18;;;;;;;3.80;2.30;;;;;;;;;;5031423;28;20450;-76
2023/07/26 00:29:44;;;;;;;4.13;2.22;;;;;;;;;;5032571;28;20094;-76
2023/07/26 00:32:09;;;;;;;3.42;2.47;;;;;;;;;;5031411;28;20033;-75
2023/07/26 00:34:35;;;;;;;2.95;2.13;;;;;;;;;;5032102;28;20366;-75
2023/07/26 00:37:03;;;;;;;5.50;2.60;;;;;;;;;;5031099;28;20091;-76
2023/07/26 00:39:29;;;;;;;4.88;2.50;;;;;;;;;;5032532;28;20103;-75
2023/07/26 00:41:55;;;;;;;5.13;2.58;;;;;;;;;;5031479;28;20147;-76
2023/07/26 00:44:20;;;;;;;2.53;2.08;;;;;;;;;;5032361;28;20477;-76
2023/07/26 00:46:46;;;;;;;3.80;2.47;;;;;;;;;;5031695;28;20037;-75
2023/07/26 00:49:11;;;;;;;3.00;2.58;;;;;;;;;;5030249;28;20430;-75
2023/07/26 00:51:38;;;;;;;4.07;2.45;;;;;;;;;;5031508;28;20438;-76
2023/07/26 00:54:05;;;;;;;6.78;2.42;;;;;;;;;;5030287;28;20022;-77
2023/07/26 00:56:31;;;;;;;3.78;2.55;;;;;;;;;;5031692;28;20029;-77
2023/07/26 00:58:57;;;;;;;3.15;2.40;;;;;;;;;;5030167;28;20030;-76
2023/07/26 01:01:23;;;;;;;4.63;2.45;;;;;;;;;;5031695;28;20029;-75
2023/07/26 01:03:48;;;;;;;4.90;2.50;;;;;;;;;;5032190;28;20063;-75
2023/07/26 01:06:17;;;;;;;4.35;3.20;;;;;;;;;;5030888;28;20018;-76
2023/07/26 01:09:11;;;;;;;7.50;2.58;;;;;;;;;;5030489;28;20035;-77
2023/07/26 01:11:42;;;;;;;3.55;2.67;;;;;;;;;;5030436;28;20108;-77
2023/07/26 01:14:39;;;;;;;3.60;3.03;;;;;;;;;;5032073;28;20088;-77
2023/07/26 01:17:05;;;;;;;3.75;2.92;;;;;;;;;;5007356;28;20103;-76
2023/07/26 01:19:31;;;;;;;5.05;3.10;;;;;;;;;;5030877;28;20421;-77
2023/07/26 01:21:56;;;;;;;3.88;2.90;;;;;;;;;;5032752;28;20060;-77
2023/07/26 01:24:22;;;;;;;3.40;2.85;;;;;;;;;;5032157;28;20377;-75
2023/07/26 01:26:48;;;;;;;5.53;2.72;;;;;;;;;;5030612;28;20050;-76
2023/07/26 01:29:13;;;;;;;4.30;3.45;;;;;;;;;;5032171;28;20498;-76
2023/07/26 01:31:39;;;;;;;4.47;2.95;;;;;;;;;;5031599;28;20148;-76
2023/07/26 01:34:07;;;;;;;4.22;2.70;;;;;;;;;;5030486;28;20108;-75
2023/07/26 01:36:34;;;;;;;6.32;2.75;;;;;;;;;;5031467;28;20034;-76
2023/07/26 01:39:02;;;;;;;5.28;2.70;;;;;;;;;;5030580;28;20374;-76
2023/07/26 01:41:29;;;;;;;7.28;2.97;;;;;;;;;;5030706;28;20022;-76
2023/07/26 01:43:55;;;;;;;3.30;2.90;;;;;;;;;;5031124;28;20424;-76
2023/07/26 01:46:20;;;;;;;4.93;2.90;;;;;;;;;;5031687;28;20449;-76
2023/07/26 01:48:46;;;;;;;8.20;4.53;;;;;;;;;;5031727;28;20025;-76
2023/07/26 01:51:11;;;;;;;5.28;3.22;;;;;;;;;;5030842;28;20056;-76
2023/07/26 01:53:37;;;;;;;9.35;3.95;;;;;;;;;;5030576;28;20025;-77
2023/07/26 01:56:04;;;;;;;4.80;3.13;;;;;;;;;;5032205;28;20136;-77
2023/07/26 01:58:30;;;;;;;7.00;3.47;;;;;;;;;;5031511;28;20029;-77
2023/07/26 02:00:56;;;;;;;4.78;2.97;;;;;;;;;;5030655;28;20037;-75
2023/07/26 02:03:22;;;;;;;4.78;3.42;;;;;;;;;;5030405;28;20512;-76
2023/07/26 02:05:47;;;;;;;7.05;3.25;;;;;;;;;;5030102;28;20022;-76
2023/07/26 02:08:16;;;;;;;4.53;3.63;;;;;;;;;;5031826;28;20022;-76
2023/07/26 02:10:42;;;;;;;4.05;3.25;;;;;;;;;;5030229;28;20116;-77
2023/07/26 02:13:08;;;;;;;8.90;3.80;;;;;;;;;;5030716;28;20490;-76
2023/07/26 02:15:34;;;;;;;5.50;3.70;;;;;;;;;;5029558;28;20036;-77
2023/07/26 02:17:59;;;;;;;4.80;3.05;;;;;;;;;;5031322;28;20116;-76
2023/07/26 02:20:25;;;;;;;8.02;3.50;;;;;;;;;;5029598;28;20064;-76
2023/07/26 02:22:52;;;;;;;4.45;3.40;;;;;;;;;;5029141;28;20037;-77
2023/07/26 02:25:18;;;;;;;4.47;2.97;;;;;;;;;;5028906;28;20092;-77
2023/07/26 02:27:44;;;;;;;7.63;3.70;;;;;;;;;;5030373;28;20091;-77
2023/07/26 02:30:09;;;;;;;5.20;3.67;;;;;;;;;;5028980;28;20545;-76
2023/07/26 02:32:35;;;;;;;5.35;3.13;;;;;;;;;;5030205;28;20025;-76
2023/07/26 02:35:01;;;;;;;9.52;3.78;;;;;;;;;;5030946;28;20072;-77
2023/07/26 02:37:26;;;;;;;4.28;3.13;;;;;;;;;;5031283;28;20113;-76
2023/07/26 02:39:52;;;;;;;3.70;2.88;;;;;;;;;;5030639;28;20026;-77
2023/07/26 02:42:18;;;;;;;5.82;3.30;;;;;;;;;;5030454;28;20017;-75
2023/07/26 02:44:46;;;;;;;7.03;3.60;;;;;;;;;;5030281;28;20136;-76
2023/07/26 02:47:11;;;;;;;4.30;3.15;;;;;;;;;;5030860;28;20061;-76
2023/07/26 02:49:37;;;;;;;7.95;3.85;;;;;;;;;;5034041;28;20125;-76
2023/07/26 02:52:02;;;;;;;5.32;3.38;;;;;;;;;;5032903;28;20021;-77
2023/07/26 02:54:28;;;;;;;4.05;3.35;;;;;;;;;;5032538;28;20033;-76
2023/07/26 02:56:53;;;;;;;5.45;3.05;;;;;;;;;;5032704;28;20032;-77
2023/07/26 02:59:19;;;;;;;8.73;3.15;;;;;;;;;;5033095;28;20025;-77
2023/07/26 03:01:44;;;;;;;7.75;3.22;;;;;;;;;;5034259;28;20026;-77
2023/07/26 03:04:11;;;;;;;4.07;3.35;;;;;;;;;;5034067;28;20366;-76
2023/07/26 03:06:36;;;;;;;5.32;4.22;;;;;;;;;;5035182;28;20057;-76
2023/07/26 03:09:03;;;;;;;6.78;3.20;;;;;;;;;;5034475;28;20115;-78
2023/07/26 03:11:28;;;;;;;7.57;3.95;;;;;;;;;;5032372;28;20117;-77
2023/07/26 03:13:55;;;;;;;6.45;3.83;;;;;;;;;;5031950;28;20134;-77
2023/07/26 03:16:21;;;;;;;5.82;3.53;;;;;;;;;;5033668;28;20025;-76
2023/07/26 03:18:46;;;;;;;5.57;3.53;;;;;;;;;;5032376;28;20021;-76
2023/07/26 03:21:12;;;;;;;8.75;4.43;;;;;;;;;;5032101;28;20029;-77
2023/07/26 03:23:38;;;;;;;6.78;4.07;;;;;;;;;;5033624;28;20022;-77
2023/07/26 03:26:03;;;;;;;10.82;4.85;;;;;;;;;;5033643;28;20049;-76
2023/07/26 03:28:29;;;;;;;5.47;3.88;;;;;;;;;;5034673;28;20025;-76
2023/07/26 03:30:54;;;;;;;7.18;3.97;;;;;;;;;;5032390;28;20116;-76
2023/07/26 03:33:20;;;;;;;6.43;4.15;;;;;;;;;;5047801;28;20555;-74
2023/07/26 03:35:45;;;;;;;7.25;4.57;;;;;;;;;;5047446;28;20025;-75
2023/07/26 03:38:11;;;;;;;7.47;3.80;;;;;;;;;;5048852;28;20016;-77
2023/07/26 03:40:38;;;;;;;5.50;4.00;;;;;;;;;;5052087;28;20489;-76
2023/07/26 03:43:03;;;;;;;9.30;4.07;;;;;;;;;;5037153;28;20033;-77
2023/07/26 03:45:29;;;;;;;4.13;3.72;;;;;;;;;;5032681;28;20397;-77
2023/07/26 03:47:55;;;;;;;5.20;3.80;;;;;;;;;;5033284;28;20033;-77
2023/07/26 03:50:21;;;;;;;7.72;4.20;;;;;;;;;;5032332;28;20108;-75
2023/07/26 03:52:47;;;;;;;6.72;4.20;;;;;;;;;;5032877;28;20461;-76
2023/07/26 03:55:12;;;;;;;6.18;4.03;;;;;;;;;;5034618;28;20029;-77
2023/07/26 03:57:38;;;;;;;5.78;4.00;;;;;;;;;;5032900;28;20124;-76
2023/07/26 04:00:04;;;;;;;8.68;5.30;;;;;;;;;;5032201;28;20033;-77
2023/07/26 04:02:31;;;;;;;9.30;4.10;;;;;;;;;;5032065;28;20028;-76
2023/07/26 04:04:57;;;;;;;7.22;5.22;;;;;;;;;;5032463;28;20348;-78
2023/07/26 04:07:23;;;;;;;7.57;4.63;;;;;;;;;;5031274;28;20025;-76
2023/07/26 04:09:48;;;;;;;9.50;4.82;;;;;;;;;;5025614;28;20021;-76
2023/07/26 04:12:14;;;;;;;7.00;5.38;;;;;;;;;;5011865;28;20532;-77
2023/07/26 04:14:41;;;;;;;8.65;4.68;;;;;;;;;;5018630;28;20083;-78
2023/07/26 04:17:06;;;;;;;8.13;4.85;;;;;;;;;;5030914;28;20561;-76
2023/07/26 04:19:32;;;;;;;8.80;4.80;;;;;;;;;;5014420;28;20124;-77
2023/07/26 04:21:57;;;;;;;7.80;4.60;;;;;;;;;;5030621;28;20026;-77
2023/07/26 04:24:23;;;;;;;7.13;4.30;;;;;;;;;;5030728;28;20095;-76
2023/07/26 04:26:49;;;;;;;7.55;4.78;;;;;;;;;;5031954;28;20049;-76
2023/07/26 04:29:15;;;;;;;6.88;4.10;;;;;;;;;;5032375;28;20022;-75
2023/07/26 04:31:41;;;;;;;6.28;4.95;;;;;;;;;;5032545;28;20466;-76
2023/07/26 04:34:06;;;;;;;10.43;4.45;;;;;;;;;;5031082;28;20033;-77
2023/07/26 04:36:32;;;;;;;7.15;4.10;;;;;;;;;;5031062;28;20029;-77
2023/07/26 04:38:57;;;;;;;9.07;4.15;;;;;;;;;;5030568;28;20067;-77
2023/07/26 04:41:23;;;;;;;11.10;4.85;;;;;;;;;;5030881;28;20030;-77
2023/07/26 04:43:48;;;;;;;7.63;4.00;;;;;;;;;;5032138;28;20069;-77
2023/07/26 04:46:16;;;;;;;6.22;4.03;;;;;;;;;;5031453;28;20018;-77
2023/07/26 04:48:42;;;;;;;6.38;3.90;;;;;;;;;;5030094;28;20027;-76
2023/07/26 04:51:07;;;;;;;8.07;4.40;;;;;;;;;;5014278;28;20105;-77
2023/07/26 04:53:33;;;;;;;6.63;4.30;;;;;;;;;;5030805;28;20116;-77
2023/07/26 04:55:58;;;;;;;7.90;4.10;;;;;;;;;;5028325;28;20021;-76
2023/07/26 04:58:24;;;;;;;6.38;3.92;;;;;;;;;;5028431;28;20021;-75
2023/07/26 05:00:50;;;;;;;7.55;3.85;;;;;;;;;;5020343;28;20030;-76
2023/07/26 05:03:16;;;;;;;5.45;3.95;;;;;;;;;;5013865;28;20044;-76
2023/07/26 05:05:47;;;;;;;4.97;3.70;;;;;;;;;;5031836;28;20033;-77
2023/07/26 05:08:12;;;;;;;;;;;;;;;;;;5016209;28;20744;-76
2023/07/26 05:10:38;;;;;;;4.00;3.25;;;;;;;;;;5021162;28;20364;-77
2023/07/26 05:13:06;;;;;;;21.65;3.63;;;;;;;;;;5029945;28;20307;-77
2023/07/26 05:15:33;;;;;;;4.85;4.10;;;;;;;;;;5018439;28;20025;-77
2023/07/26 05:17:58;;;;;;;5.60;3.28;;;;;;;;;;5019710;28;20048;-75
2023/07/26 05:20:24;;;;;;;7.38;3.38;;;;;;;;;;5020645;28;20029;-78
2023/07/26 05:22:49;;;;;;;11.77;4.15;;;;;;;;;;5026196;28;20533;-77
2023/07/26 05:25:15;;;;;;;7.22;3.15;;;;;;;;;;5020992;28;20531;-77
2023/07/26 05:27:41;;;;;;;11.45;3.67;;;;;;;;;;5027418;28;20040;-77
2023/07/26 05:30:07;;;;;;;8.77;3.75;;;;;;;;;;5020139;28;20524;-77
2023/07/26 05:32:33;;;;;;;8.50;3.33;;;;;;;;;;5029615;28;20029;-78
2023/07/26 05:34:58;;;;;;;9.40;3.22;;;;;;;;;;5028581;28;20029;-77
2023/07/26 05:37:24;;;;;;;4.15;3.20;;;;;;;;;;5026846;28;20033;-78
2023/07/26 05:39:51;;;;;;;5.55;3.40;;;;;;;;;;5022472;28;20025;-76
2023/07/26 05:42:17;;;;;;;8.35;3.90;;;;;;;;;;5021255;28;20454;-75
2023/07/26 05:44:43;;;;;;;8.20;3.15;;;;;;;;;;5015018;28;20045;-75
2023/07/26 05:47:14;;;;;;;6.75;3.00;;;;;;;;;;5020146;28;20520;-75
2023/07/26 05:49:44;;;;;;;7.85;3.50;;;;;;;;;;5004380;28;20417;-75
2023/07/26 05:52:10;;;;;;;10.35;2.97;;;;;;;;;;5023597;28;20029;-74
2023/07/26 05:54:36;;;;;;;8.95;2.60;;;;;;;;;;5019577;28;20061;-75
2023/07/26 05:57:03;;;;;;;7.22;3.00;;;;;;;;;;5023482;28;20473;-76
2023/07/26 05:59:28;;;;;;;7.18;2.90;;;;;;;;;;5019787;28;20128;-79
2023/07/26 06:01:54;;;;;;;6.63;3.78;;;;;;;;;;5022082;28;20358;-77
2023/07/26 06:04:32;;;;;;;8.60;2.90;;;;;;;;;;5028214;28;20037;-76
2023/07/26 06:06:59;;;;;;;10.82;2.17;;;;;;;;;;5025464;28;20049;-78
2023/07/26 06:09:25;;;;;;;8.43;3.05;;;;;;;;;;5023487;28;20096;-79
2023/07/26 06:12:00;;;;;;;5.25;3.42;;;;;;;;;;5020080;28;20042;-77
2023/07/26 06:14:29;;;;;;;8.45;3.67;;;;;;;;;;5026579;28;20057;-77
2023/07/26 06:16:55;;;;;;;5.43;3.10;;;;;;;;;;5028568;28;20040;-77
2023/07/26 06:19:32;;;;;;;5.65;2.63;;;;;;;;;;5028003;28;20037;-79
2023/07/26 06:22:01;;;;;;;8.68;4.03;;;;;;;;;;5025406;28;20037;-79
2023/07/26 06:24:28;;;;;;;12.20;3.25;;;;;;;;;;5036836;28;20017;-74
2023/07/26 06:26:54;;;;;;;5.53;3.08;;;;;;;;;;5040031;28;20045;-75
2023/07/26 06:29:22;;;;;;;5.10;3.45;;;;;;;;;;5032751;28;20048;-77
2023/07/26 06:31:52;;;;;;;6.22;3.40;;;;;;;;;;5036396;28;20033;-74
2023/07/26 06:34:19;;;;;;;11.15;5.78;;;;;;;;;;5035101;28;20056;-78
2023/07/26 06:36:46;;;;;;;10.18;3.92;;;;;;;;;;5027307;28;20135;-76
2023/07/26 06:39:12;;;;;;;10.55;3.88;;;;;;;;;;5027010;28;20036;-75
2023/07/26 06:41:41;;;;;;;9.48;3.38;;;;;;;;;;5031157;28;20030;-80
2023/07/26 06:44:07;;;;;;;9.02;4.13;;;;;;;;;;5046594;28;20448;-77
2023/07/26 06:46:38;;;;;;;8.60;4.43;;;;;;;;;;5032517;28;20025;-74
2023/07/26 06:49:11;;;;;;;10.68;4.65;;;;;;;;;;5028571;28;20408;-75
2023/07/26 06:51:37;;;;;;;8.02;3.78;;;;;;;;;;5027121;28;20052;-75
2023/07/26 06:54:05;;;;;;;7.22;4.18;;;;;;;;;;5020793;28;20033;-75
2023/07/26 06:56:31;;;;;;;13.50;4.78;;;;;;;;;;5032255;28;20446;-77
2023/07/26 06:58:58;;;;;;;6.70;4.20;;;;;;;;;;5027647;28;20095;-78
2023/07/26 07:01:28;;;;;;;8.40;4.50;;;;;;;;;;5034190;28;20088;-78
2023/07/26 07:03:55;;;;;;;5.68;4.22;;;;;;;;;;5025071;28;20049;-80
2023/07/26 07:06:27;;;;;;;8.20;4.30;;;;;;;;;;5047443;28;20025;-78
2023/07/26 07:08:57;;;;;;;6.40;4.10;;;;;;;;;;5027526;28;20398;-80
2023/07/26 07:11:23;;;;;;;6.93;4.30;;;;;;;;;;5030602;28;20060;-79
2023/07/26 07:13:50;;;;;;;8.60;4.97;;;;;;;;;;5037157;28;20032;-77
2023/07/26 07:16:27;;;;;;;5.25;4.20;;;;;;;;;;5037021;28;20029;-80
2023/07/26 07:19:22;;;;;;;9.80;3.85;;;;;;;;;;5042530;28;20132;-79
2023/07/26 07:21:48;;;;;;;9.25;3.97;;;;;;;;;;5038323;28;20054;-78
2023/07/26 07:24:15;;;;;;;8.68;3.88;;;;;;;;;;5029504;28;20026;-75
2023/07/26 07:26:44;;;;;;;6.35;4.07;;;;;;;;;;5042793;28;20107;-78
2023/07/26 07:29:20;;;;;;;5.07;3.60;;;;;;;;;;5009943;28;20046;-78
2023/07/26 07:31:49;;;;;;;9.05;3.95;;;;;;;;;;4999639;28;20588;-79
2023/07/26 07:34:16;;;;;;;3.95;2.92;;;;;;;;;;4998110;28;20795;-80
2023/07/26 07:36:48;;;;;;;9.60;3.92;;;;;;;;;;4984321;28;20054;-78
2023/07/26 07:39:17;;;;;;;5.85;3.83;;;;;;;;;;4992835;28;20022;-78
2023/07/26 07:42:27;;;;;;;5.53;3.70;;;;;;;;;;4998493;28;20049;-77
2023/07/26 07:45:06;;;;;;;;;;;;;;;;;;;;;
2023/07/26 07:47:40;;;;;;;7.75;3.85;;;;;;;;;;5023039;28;20105;-77
2023/07/26 07:50:25;;;;;;;3.83;3.33;;;;;;;;;;5020120;28;20026;-81
2023/07/26 07:53:04;;;;;;;11.18;4.07;;;;;;;;;;5016132;28;20033;-82
2023/07/26 07:55:37;;;;;;;7.30;3.53;;;;;;;;;;4989503;28;20030;-79
2023/07/26 07:58:04;;;;;;;6.80;3.30;;;;;;;;;;4996621;28;20033;-80
2023/07/26 08:00:58;;;;;;;4.88;3.38;;;;;;;;;;5005824;28;20053;-79
2023/07/26 08:03:29;;;;;;;6.00;3.58;;;;;;;;;;5009637;28;20047;-80
2023/07/26 08:05:59;;;;;;;6.65;3.13;;;;;;;;;;5003344;28;20037;-78
2023/07/26 08:08:26;;;;;;;14.52;3.28;;;;;;;;;;5036875;28;20037;-76
2023/07/26 08:10:55;;;;;;;11.15;3.38;;;;;;;;;;5022091;28;20112;-79
2023/07/26 08:13:21;;;;;;;8.88;2.60;;;;;;;;;;5029206;28;20105;-77
2023/07/26 08:15:48;;;;;;;8.55;3.00;;;;;;;;;;5031925;28;20093;-83
2023/07/26 08:18:19;;;;;;;4.10;2.40;;;;;;;;;;5013256;28;20129;-77
2023/07/26 08:20:49;;;;;;;5.97;2.58;;;;;;;;;;5030214;28;20064;-77
2023/07/26 08:23:15;;;;;;;4.82;2.70;;;;;;;;;;5031916;28;20029;-79
2023/07/26 08:25:42;;;;;;;4.70;2.53;;;;;;;;;;5030171;28;20046;-78
2023/07/26 08:28:12;;;;;;;10.50;3.10;;;;;;;;;;5028302;28;20118;-77
2023/07/26 08:30:38;;;;;;;4.40;2.80;;;;;;;;;;5023996;28;20021;-77
2023/07/26 08:33:06;;;;;;;5.30;2.88;;;;;;;;;;5030451;28;20021;-79
2023/07/26 08:35:36;;;;;;;7.35;2.90;;;;;;;;;;5033469;28;20529;-77
2023/07/26 08:38:03;;;;;;;5.75;3.05;;;;;;;;;;5038748;28;20028;-80
2023/07/26 08:40:29;;;;;;;8.60;3.05;;;;;;;;;;5030470;28;20034;-79
2023/07/26 08:43:05;;;;;;;6.03;2.70;;;;;;;;;;5034991;28;20029;-76
2023/07/26 08:45:50;;;;;;;2.83;2.55;;;;;;;;;;5041780;28;20025;-79
2023/07/26 08:48:18;;;;;;;6.00;2.50;;;;;;;;;;5027521;28;20124;-74
2023/07/26 08:50:45;;;;;;;7.40;3.60;;;;;;;;;;5024656;28;20524;-76
2023/07/26 08:53:20;;;;;;;7.78;5.50;;;;;;;;;;5025552;28;20032;-77
2023/07/26 08:55:51;;;;;;;10.15;4.65;;;;;;;;;;5037493;28;20056;-77
2023/07/26 08:58:17;;;;;;;9.15;4.35;;;;;;;;;;5029616;28;20041;-76
2023/07/26 09:00:45;;;;;;;3.30;3.00;;;;;;;;;;5037221;28;20034;-81
2023/07/26 09:03:14;;;;;;;6.78;2.97;;;;;;;;;;5039252;28;20030;-78
2023/07/26 09:05:46;;;;;;;12.50;2.88;;;;;;;;;;5031858;28;20033;-78
2023/07/26 09:08:14;;;;;;;6.50;3.22;;;;;;;;;;5027733;28;20090;-78
2023/07/26 09:11:01;;;;;;;5.57;3.50;;;;;;;;;;5030998;28;20038;-79
2023/07/26 09:13:38;;;;;;;4.72;2.88;;;;;;;;;;5033321;28;20129;-80
2023/07/26 09:16:07;;;;;;;3.13;2.80;;;;;;;;;;5034367;28;20033;-80
2023/07/26 09:19:06;;;;;;;3.30;3.00;;;;;;;;;;5036592;28;20033;-80
2023/07/26 09:21:42;;;;;;;4.63;2.88;;;;;;;;;;5038227;28;20037;-78
2023/07/26 09:24:09;;;;;;;4.90;3.33;;;;;;;;;;5039882;28;20042;-79
2023/07/26 09:26:40;;;;;;;7.55;3.05;;;;;;;;;;5030767;28;20050;-79
2023/07/26 09:29:16;;;;;;;6.15;3.45;;;;;;;;;;5042276;28;20048;-82
2023/07/26 09:31:43;;;;;;;5.57;2.75;;;;;;;;;;5035552;28;20041;-77
2023/07/26 09:34:14;;;;;;;8.77;3.60;;;;;;;;;;5037765;28;20383;-78
2023/07/26 09:36:56;;;;;;;4.90;3.50;;;;;;;;;;5032889;28;21252;-79
2023/07/26 09:39:25;;;;;;;5.55;3.03;;;;;;;;;;5028816;28;20072;-79
2023/07/26 09:42:13;;;;;;;6.90;3.58;;;;;;;;;;5030323;28;20021;-78
2023/07/26 09:44:39;;;;;;;5.80;3.00;;;;;;;;;;5033481;28;20097;-79
2023/07/26 09:47:06;;;;;;;7.15;3.60;;;;;;;;;;5020224;28;20037;-79
2023/07/26 09:49:50;;;;;;;6.72;2.92;;;;;;;;;;5031937;28;20063;-83
2023/07/26 09:52:19;;;;;;;4.05;2.70;;;;;;;;;;5031777;28;20022;-79
2023/07/26 09:54:46;;;;;;;4.88;2.83;;;;;;;;;;5032484;28;20048;-79
2023/07/26 09:57:16;;;;;;;5.13;2.85;;;;;;;;;;5031264;28;20029;-78
2023/07/26 09:59:44;;;;;;;6.35;2.72;;;;;;;;;;5047680;28;20053;-81
2023/07/26 10:02:23;;;;;;;5.30;2.95;;;;;;;;;;5028831;28;20096;-81
2023/07/26 10:05:05;;;;;;;7.45;3.13;;;;;;;;;;5031549;28;20026;-81
2023/07/26 10:07:32;;;;;;;6.40;2.58;;;;;;;;;;5023059;28;20045;-79
2023/07/26 10:10:01;;;;;;;4.05;2.22;;;;;;;;;;5018183;28;20045;-80
2023/07/26 10:12:39;;;;;;;4.93;2.28;;;;;;;;;;5022370;28;20037;-80
2023/07/26 10:15:09;;;;;;;7.97;2.88;;;;;;;;;;5026589;28;20363;-81
2023/07/26 10:17:42;;;;;;;5.00;2.20;;;;;;;;;;5027922;28;20030;-75
2023/07/26 10:20:09;;;;;;;5.70;2.40;;;;;;;;;;5030078;28;20034;-78
2023/07/26 10:22:37;;;;;;;3.42;2.47;;;;;;;;;;5022872;28;20120;-80
2023/07/26 10:25:07;;;;;;;5.50;2.47;;;;;;;;;;5030307;28;20052;-77
2023/07/26 10:27:33;;;;;;;4.70;2.40;;;;;;;;;;5027633;28;20163;-79
2023/07/26 10:30:00;;;;;;;7.68;2.67;;;;;;;;;;5027772;28;20044;-79
2023/07/26 10:32:29;;;;;;;3.63;2.28;;;;;;;;;;5003977;28;20026;-79
2023/07/26 10:34:56;;;;;;;2.85;2.45;;;;;;;;;;5018087;28;21053;-79
2023/07/26 10:37:23;;;;;;;6.85;2.33;;;;;;;;;;5010791;28;20039;-78
2023/07/26 10:39:56;;;;;;;2.75;2.25;;;;;;;;;;5018828;28;20437;-77
2023/07/26 10:42:33;;;;;;;5.63;2.20;;;;;;;;;;5017591;28;20378;-77
2023/07/26 10:45:25;;;;;;;4.20;1.70;;;;;;;;;;5023469;28;20025;-80
2023/07/26 10:47:55;;;;;;;4.00;3.65;;;;;;;;;;5021872;28;20037;-79
2023/07/26 10:50:25;;;;;;;2.53;2.20;;;;;;;;;;5030385;28;20091;-78
2023/07/26 10:52:52;;;;;;;3.42;2.35;;;;;;;;;;5021412;28;20105;-80
2023/07/26 10:55:26;;;;;;;3.40;1.95;;;;;;;;;;5045122;28;20032;-81
2023/07/26 10:58:14;;;;;;;4.68;2.17;;;;;;;;;;5027673;28;20108;-80
2023/07/26 11:00:41;;;;;;;2.33;1.60;;;;;;;;;;5019972;28;20033;-78
2023/07/26 11:03:09;;;;;;;3.15;1.48;;;;;;;;;;5023242;28;20560;-79
2023/07/26 11:05:38;;;;;;;3.42;1.50;;;;;;;;;;5027451;28;20442;-77
2023/07/26 11:08:08;;;;;;;4.47;1.80;;;;;;;;;;5027069;28;20045;-80
2023/07/26 11:10:35;;;;;;;4.70;2.10;;;;;;;;;;5030642;28;20670;-78
2023/07/26 11:13:13;;;;;;;1.88;1.77;;;;;;;;;;5026849;28;20432;-79
2023/07/26 11:15:48;;;;;;;2.85;1.83;;;;;;;;;;5031556;28;20033;-79
2023/07/26 11:18:16;;;;;;;2.35;1.73;;;;;;;;;;5032292;28;20254;-79
2023/07/26 11:20:52;;;;;;;7.60;1.70;;;;;;;;;;5025022;28;20013;-78
2023/07/26 11:23:26;;;;;;;4.22;1.70;;;;;;;;;;5034466;28;20059;-78
2023/07/26 11:25:58;;;;;;;3.15;1.75;;;;;;;;;;5031735;28;20049;-76
2023/07/26 11:28:27;;;;;;;2.72;1.33;;;;;;;;;;5024397;28;20033;-79
2023/07/26 11:30:55;;;;;;;3.80;1.63;;;;;;;;;;5026814;28;20026;-77
2023/07/26 11:33:34;;;;;;;1.48;1.30;;;;;;;;;;5029640;28;20044;-79
2023/07/26 11:36:02;;;;;;;1.63;1.50;;;;;;;;;;5020929;28;20058;-78
2023/07/26 11:38:29;;;;;;;1.98;1.85;;;;;;;;;;5031583;28;20145;-78
2023/07/26 11:41:07;;;;;;;7.15;2.00;;;;;;;;;;5015703;28;20030;-76
2023/07/26 11:43:33;;;;;;;5.30;1.80;;;;;;;;;;5027948;28;20200;-77
2023/07/26 11:45:59;;;;;;;1.90;1.40;;;;;;;;;;5045990;28;20089;-81
2023/07/26 11:48:29;;;;;;;1.80;1.50;;;;;;;;;;5028739;28;20025;-80
2023/07/26 11:50:56;;;;;;;5.90;2.40;;;;;;;;;;5028998;28;20048;-79
2023/07/26 11:53:29;;;;;;;3.30;1.90;;;;;;;;;;5027458;28;20042;-81
2023/07/26 11:55:58;;;;;;;8.75;1.75;;;;;;;;;;5033830;28;20036;-81
2023/07/26 11:58:24;;;;;;;4.15;1.50;;;;;;;;;;5038141;28;20120;-78
2023/07/26 12:00:50;;;;;;;1.65;1.50;;;;;;;;;;5035321;28;20056;-77
2023/07/26 12:03:15;;;;;;;6.20;2.15;;;;;;;;;;5032485;28;20090;-77
2023/07/26 12:05:49;;;;;;;4.00;1.30;;;;;;;;;;5043901;28;20426;-76
2023/07/26 12:08:20;;;;;;;1.98;1.27;;;;;;;;;;5036693;28;20036;-78
2023/07/26 12:10:47;;;;;;;1.98;1.45;;;;;;;;;;5014608;28;20524;-77
2023/07/26 12:13:24;;;;;;;1.83;1.65;;;;;;;;;;5040587;28;20041;-77
2023/07/26 12:15:55;;;;;;;3.88;2.00;;;;;;;;;;5030113;28;20032;-77
2023/07/26 12:18:22;;;;;;;2.47;1.60;;;;;;;;;;5034325;28;20029;-78
2023/07/26 12:21:09;;;;;;;2.47;1.30;;;;;;;;;;5027536;28;20516;-79
2023/07/26 12:23:51;;;;;;;3.03;1.55;;;;;;;;;;5034164;28;20041;-79
2023/07/26 12:26:19;;;;;;;1.50;1.40;;;;;;;;;;5044567;28;20084;-79
2023/07/26 12:28:53;;;;;;;1.48;1.27;;;;;;;;;;5028068;28;20312;-80
2023/07/26 12:31:25;;;;;;;1.80;1.10;;;;;;;;;;5029968;28;20152;-79
2023/07/26 12:34:01;;;;;;;;;;;;;;;;;;5026977;28;20034;-77
2023/07/26 12:36:56;;;;;;;2.08;0.95;;;;;;;;;;5018899;28;19925;-77
2023/07/26 12:39:22;;;;;;;0.90;0.80;;;;;;;;;;5004390;28;20037;-78
2023/07/26 12:41:47;;;;;;;6.75;1.77;;;;;;;;;;5020995;28;20076;-76
2023/07/26 12:44:15;;;;;;;1.65;1.30;;;;;;;;;;5028343;28;20033;-79
2023/07/26 12:46:42;;;;;;;3.25;1.05;;;;;;;;;;5022975;28;20032;-78
2023/07/26 12:49:09;;;;;;;1.83;0.77;;;;;;;;;;5024000;28;20079;-76
2023/07/26 12:51:38;;;;;;;2.67;0.90;;;;;;;;;;5027650;28;20025;-78
2023/07/26 12:54:05;;;;;;;2.58;1.17;;;;;;;;;;5025457;28;20494;-77
2023/07/26 12:56:30;;;;;;;1.98;1.10;;;;;;;;;;5018631;28;20034;-77
2023/07/26 12:58:56;;;;;;;4.38;1.50;;;;;;;;;;5016176;28;20528;-80
2023/07/26 13:01:22;;;;;;;2.92;1.23;;;;;;;;;;5025903;28;20032;-79
2023/07/26 13:03:47;;;;;;;3.30;1.27;;;;;;;;;;5027409;28;20028;-81
2023/07/26 13:06:13;;;;;;;1.67;0.85;;;;;;;;;;5016184;28;20030;-78
2023/07/26 13:08:39;;;;;;;3.22;0.80;;;;;;;;;;5022840;28;20108;-78
2023/07/26 13:11:06;;;;;;;1.48;0.70;;;;;;;;;;5024631;28;20117;-77
2023/07/26 13:13:31;;;;;;;3.25;1.23;;;;;;;;;;5017441;28;20029;-76
2023/07/26 13:15:58;;;;;;;2.63;0.88;;;;;;;;;;5026951;28;20048;-76
2023/07/26 13:18:24;;;;;;;2.08;1.02;;;;;;;;;;5024995;28;20033;-78
2023/07/26 13:20:50;;;;;;;2.10;1.00;;;;;;;;;;5022729;28;20029;-77
2023/07/26 13:23:16;;;;;;;3.05;1.10;;;;;;;;;;5025365;28;20033;-79
2023/07/26 13:25:42;;;;;;;3.85;1.48;;;;;;;;;;5022641;28;20116;-78
2023/07/26 13:28:08;;;;;;;2.30;0.90;;;;;;;;;;5024338;28;20486;-78
2023/07/26 13:30:33;;;;;;;1.17;0.82;;;;;;;;;;5032284;28;20057;-77
2023/07/26 13:33:05;;;;;;;3.90;1.23;;;;;;;;;;5021197;28;20036;-77
2023/07/26 13:35:33;;;;;;;2.60;1.27;;;;;;;;;;5013985;28;20109;-77
2023/07/26 13:37:59;;;;;;;4.35;1.10;;;;;;;;;;5033319;28;20096;-78
2023/07/26 13:40:25;;;;;;;1.67;1.10;;;;;;;;;;5020247;28;20053;-76
2023/07/26 13:42:52;;;;;;;4.70;1.50;;;;;;;;;;5024994;28;20032;-78
2023/07/26 13:45:17;;;;;;;2.22;0.93;;;;;;;;;;5027425;28;20030;-79
2023/07/26 13:47:46;;;;;;;2.63;0.77;;;;;;;;;;5026364;28;20040;-77
2023/07/26 13:50:14;;;;;;;1.80;0.73;;;;;;;;;;5029326;28;20022;-78
2023/07/26 13:52:41;;;;;;;2.20;0.80;;;;;;;;;;5022896;28;20044;-78
2023/07/26 13:55:13;;;;;;;1.40;0.88;;;;;;;;;;5041181;28;20049;-79
2023/07/26 13:57:39;;;;;;;1.08;0.60;;;;;;;;;;5022404;28;20451;-78
2023/07/26 14:00:08;;;;;;;1.70;0.70;;;;;;;;;;5029810;28;20041;-79
2023/07/26 14:02:34;;;;;;;1.35;0.82;;;;;;;;;;5022976;28;20032;-79
2023/07/26 14:05:03;;;;;;;0.60;0.57;;;;;;;;;;5017873;28;20046;-78
2023/07/26 14:07:33;;;;;;;3.47;0.90;;;;;;;;;;5022414;28;20176;-77
2023/07/26 14:09:59;;;;;;;2.50;0.70;;;;;;;;;;5019073;28;20507;-78
2023/07/26 14:12:26;;;;;;;2.85;0.80;;;;;;;;;;5024175;28;20037;-78
2023/07/26 14:14:52;;;;;;;4.43;0.70;;;;;;;;;;5028253;28;20036;-78
2023/07/26 14:17:29;;;;;;;0.70;0.70;;;;;;;;;;5029778;28;20508;-78
2023/07/26 14:19:55;;;;;;;2.30;0.80;;;;;;;;;;5032737;28;20064;-78
2023/07/26 14:22:21;;;;;;;2.67;0.80;;;;;;;;;;5032700;28;20121;-78
2023/07/26 14:24:47;;;;;;;6.25;0.75;;;;;;;;;;5029086;28;20493;-78
2023/07/26 14:27:13;;;;;;;0.65;0.45;;;;;;;;;;5031036;28;20060;-79
2023/07/26 14:29:38;;;;;;;0.85;0.52;;;;;;;;;;5030271;28;20025;-78
2023/07/26 14:32:05;;;;;;;0.95;0.75;;;;;;;;;;5024796;28;20367;-78
2023/07/26 14:34:31;;;;;;;3.25;0.95;;;;;;;;;;5010434;28;20037;-78
2023/07/26 14:36:57;;;;;;;1.58;0.70;;;;;;;;;;5029734;28;20535;-80
2023/07/26 14:39:22;;;;;;;1.38;0.60;;;;;;;;;;5030801;28;20082;-79
2023/07/26 14:41:48;;;;;;;2.42;0.63;;;;;;;;;;5031138;28;20037;-79
2023/07/26 14:44:14;;;;;;;1.38;1.02;;;;;;;;;;5033765;28;20636;-77
2023/07/26 14:46:39;;;;;;;1.17;0.80;;;;;;;;;;5031672;28;20026;-77
2023/07/26 14:49:05;;;;;;;2.13;1.05;;;;;;;;;;5019455;28;20039;-80
2023/07/26 14:51:32;;;;;;;2.00;1.00;;;;;;;;;;5030842;28;20039;-80